Portada
METAR-TAF:

METAR-TAF

Aeroports :

Bradshaw Army Air Field

Bradshaw, Hawaii, Estats Units d'Amèrica

latitud: 19-47N, longitud: 155-33W, altitud: 1887 m

Observació

L'informe es va fer fa 1 hora i 1 minuts, a les 03:02 UTC
Vent calma
Temperatura 15°C
Humitat 88%
Pressió 1027 hPa
Visibilitat: 12.9 km
Núvols disperses a una alçada de 5000 ft
Núvols disperses a una alçada de 9000 ft
Cel ennuvolat a una alçada de 15000 ft

METAR: PHSF 270302Z AUTO 00000KT 8SM SCT050 SCT090 BKN150 15/13 A3032 RMK AO2 RAE02 SLP167 $

Hora: 18:03 (04:03 UTC)


TAF: manca

Observacions i pronòstics meteorològics de més de 4000 aeroports (METAR i TAF).

Les estacions disponibles són els punts grocs i vermells al mapa.

Posi el ratolí al punt desitjat per veure el nom de l'estació.

Feu clic per veure les observacions i els pronòstics meteorològics.

Per canviar el mapa: feu clic els botons verds amb una creu de color negre per apropar; al botó verd amb un guió per allunyar la imatge; o en les fletxes verdes per a mapes adjacents.


METAR-TAF: